Seo Young — D7LH — position and weather

sailwx.info

Track history (hours):
 
Tides and Currents Weather Stations Pressure Air Temp Water Temp Dewpoint Dewpoint Depression Visibility Wind Speed Wind Dir Waves Ship Positions

Seo Young

Last reported at 2014-Jul-27 20:23 UTC. Time now 2014-Jul-29 22:59 UTC.
Position N 36°33' E 125°56'.

Length 121 m; draft 7.1 m.

Type: Tanker. MMSI: 440036000.

Date/timePositionNaut miles runAvg speedWind from/ knotsBaromVisibWave heightAir tempDewpointWater temp
2014-Jul-27 20:23N 36°33' E 125°56'3415.5
2014-Jul-27 18:11N 36°00' E 125°46'165 8.3
2014-Jul-26 22:23N 34°03' E 128°07'1712.9
2014-Jul-26 21:06N 34°10' E 128°25'  
2014-Jul-24 05:32N 31°19' E 121°45'1211.7
2014-Jul-24 04:33N 31°24' E 121°33'9 9.2
2014-Jul-24 03:33N 31°30' E 121°25'1312.1
2014-Jul-24 02:29N 31°39' E 121°13'12 2.4
2014-Jul-23 21:25N 31°45' E 121°01'0 0.0
2014-Jul-23 16:04N 31°45' E 121°01'0 0.0
2014-Jul-23 13:28N 31°45' E 121°01'1 0.2
2014-Jul-23 09:33N 31°45' E 121°02'5 1.1
2014-Jul-23 05:07N 31°44' E 121°07'0 0.1
2014-Jul-23 04:32N 31°44' E 121°07'0 0.0
2014-Jul-23 02:04N 31°44' E 121°07'0 0.1
2014-Jul-23 01:07N 31°44' E 121°07'0 0.0
2014-Jul-23 00:32N 31°44' E 121°07'0 0.0
2014-Jul-22 23:29N 31°44' E 121°07'0 0.0
2014-Jul-22 22:20N 31°44' E 121°07'0 0.0
2014-Jul-22 20:31N 31°44' E 121°07'0 0.0
2014-Jul-22 19:29N 31°44' E 121°07'0 0.0
2014-Jul-22 18:25N 31°44' E 121°07'0 0.0
2014-Jul-22 17:13N 31°44' E 121°07'0 0.1
2014-Jul-22 16:16N 31°44' E 121°07'0 0.0
2014-Jul-22 15:04N 31°44' E 121°07'0 0.0
2014-Jul-22 14:17N 31°44' E 121°07'0 0.0
2014-Jul-22 12:25N 31°44' E 121°07'0 0.1
2014-Jul-22 11:23N 31°44' E 121°07'0 0.1
2014-Jul-22 10:26N 31°44' E 121°07'0 0.0
2014-Jul-22 09:32N 31°44' E 121°07'0 0.0
2014-Jul-22 08:32N 31°44' E 121°07'0 0.0
2014-Jul-22 06:17N 31°44' E 121°07'0 0.0
2014-Jul-22 05:23N 31°44' E 121°07'0 0.0
2014-Jul-22 04:28N 31°44' E 121°07'0 0.0
2014-Jul-22 03:26N 31°44' E 121°07'0 0.0
2014-Jul-22 02:10N 31°44' E 121°07'0 0.0
2014-Jul-21 23:23N 31°44' E 121°07'0 0.0
2014-Jul-21 22:11N 31°44' E 121°07'0 0.0
2014-Jul-21 21:16N 31°44' E 121°07'0 0.0
2014-Jul-21 19:50N 31°44' E 121°07'0 0.0
2014-Jul-21 19:05N 31°44' E 121°07'0 0.0
2014-Jul-21 18:19N 31°44' E 121°07'0 0.0
2014-Jul-21 17:20N 31°44' E 121°07'0 0.0
2014-Jul-21 16:29N 31°44' E 121°07'0 0.0
2014-Jul-21 15:26N 31°44' E 121°07'0 0.0
2014-Jul-21 13:14N 31°44' E 121°07'0 0.0
2014-Jul-21 10:29N 31°44' E 121°07'3 3.6
2014-Jul-21 09:33N 31°46' E 121°04'1212.2
2014-Jul-21 08:33N 31°53' E 120°53'1212.2
2014-Jul-21 07:33N 31°60' E 120°41'1312.7
2014-Jul-21 06:34N 32°03' E 120°27'1313.4
2014-Jul-21 05:33N 31°56' E 120°13'1413.7
2014-Jul-21 04:33N 32°00' E 119°58'15 3.3
2014-Jul-21 00:07N 32°14' E 119°53'0 0.0
2014-Jul-20 22:31N 32°14' E 119°53'0 0.0
2014-Jul-20 21:25N 32°14' E 119°53'0 0.0
2014-Jul-20 17:13N 32°14' E 119°53'5 0.4
2014-Jul-20 06:23N 32°10' E 119°54'910.8
2014-Jul-20 05:33N 32°01' E 119°58'1010.3
2014-Jul-20 04:33N 31°56' E 120°08'1010.3
2014-Jul-20 03:33N 31°59' E 120°20'9 9.3
2014-Jul-20 02:33N 32°04' E 120°29'1111.0
2014-Jul-20 01:33N 32°00' E 120°41'1110.7
2014-Jul-20 00:33N 31°56' E 120°52'1211.6
2014-Jul-19 23:33N 31°47' E 121°01'1313.0
2014-Jul-19 22:34N 31°39' E 121°13'8 6.0
2014-Jul-19 21:17N 31°34' E 121°20'0 0.1
2014-Jul-19 20:17N 31°34' E 121°20'0 0.0
2014-Jul-19 19:14N 31°34' E 121°20'0 0.0
2014-Jul-19 18:32N 31°34' E 121°20'0 0.0
2014-Jul-19 17:29N 31°34' E 121°20'0 0.0
2014-Jul-19 16:32N 31°34' E 121°20'0 0.0
2014-Jul-19 15:20N 31°34' E 121°20'0 0.0
2014-Jul-19 14:26N 31°34' E 121°20'0 0.1
2014-Jul-19 13:25N 31°34' E 121°20'8 9.2
2014-Jul-19 12:33N 31°29' E 121°27'9 9.3
2014-Jul-19 11:33N 31°23' E 121°36'1111.2
2014-Jul-19 10:33N 31°16' E 121°46'1514.6
2014-Jul-19 09:33N 31°06' E 121°59'1312.4
2014-Jul-19 08:32N 31°03' E 122°13'10 9.9
2014-Jul-19 07:31N 31°01' E 122°24'1312.6
2014-Jul-19 06:31N 31°00' E 122°39'1 0.0
2014-Jul-18 06:11N 31°00' E 122°40'4 6.4
2014-Jul-18 05:33N 30°57' E 122°43'10 9.9
2014-Jul-18 04:33N 30°53' E 122°54'2612.9
2014-Jul-18 02:33N 30°28' E 123°03'1413.2
2014-Jul-18 01:31N 30°15' E 123°06'1713.2
2014-Jul-18 00:12N 29°58' E 123°10'913.4
2014-Jul-17 23:33N 29°49' E 123°10'3014.3
2014-Jul-17 21:26N 29°19' E 123°10'  
Track history (hours):
 
Tides and Currents Weather Stations Pressure Air Temp Water Temp Dewpoint Dewpoint Depression Visibility Wind Speed Wind Dir Waves Ship Positions

Seo Young

Last reported at 2014-Jul-27 20:23 UTC. Time now 2014-Jul-29 22:59 UTC.
Position N 36°33' E 125°56'.

Length 121 m; draft 7.1 m.

Type: Tanker. MMSI: 440036000.

Date/timePositionNaut miles runAvg speedWind from/ knotsBaromVisibWave heightAir tempDewpointWater temp
2014-Jul-27 20:23N 36°33' E 125°56'3415.5
2014-Jul-27 18:11N 36°00' E 125°46'165 8.3
2014-Jul-26 22:23N 34°03' E 128°07'1712.9
2014-Jul-26 21:06N 34°10' E 128°25'  
2014-Jul-24 05:32N 31°19' E 121°45'1211.7
2014-Jul-24 04:33N 31°24' E 121°33'9 9.2
2014-Jul-24 03:33N 31°30' E 121°25'1312.1
2014-Jul-24 02:29N 31°39' E 121°13'12 2.4
2014-Jul-23 21:25N 31°45' E 121°01'0 0.0
2014-Jul-23 16:04N 31°45' E 121°01'0 0.0
2014-Jul-23 13:28N 31°45' E 121°01'1 0.2
2014-Jul-23 09:33N 31°45' E 121°02'5 1.1
2014-Jul-23 05:07N 31°44' E 121°07'0 0.1
2014-Jul-23 04:32N 31°44' E 121°07'0 0.0
2014-Jul-23 02:04N 31°44' E 121°07'0 0.1
2014-Jul-23 01:07N 31°44' E 121°07'0 0.0
2014-Jul-23 00:32N 31°44' E 121°07'0 0.0
2014-Jul-22 23:29N 31°44' E 121°07'0 0.0
2014-Jul-22 22:20N 31°44' E 121°07'0 0.0
2014-Jul-22 20:31N 31°44' E 121°07'0 0.0
2014-Jul-22 19:29N 31°44' E 121°07'0 0.0
2014-Jul-22 18:25N 31°44' E 121°07'0 0.0
2014-Jul-22 17:13N 31°44' E 121°07'0 0.1
2014-Jul-22 16:16N 31°44' E 121°07'0 0.0
2014-Jul-22 15:04N 31°44' E 121°07'0 0.0
2014-Jul-22 14:17N 31°44' E 121°07'0 0.0
2014-Jul-22 12:25N 31°44' E 121°07'0 0.1
2014-Jul-22 11:23N 31°44' E 121°07'0 0.1
2014-Jul-22 10:26N 31°44' E 121°07'0 0.0
2014-Jul-22 09:32N 31°44' E 121°07'0 0.0
2014-Jul-22 08:32N 31°44' E 121°07'0 0.0
2014-Jul-22 06:17N 31°44' E 121°07'0 0.0
2014-Jul-22 05:23N 31°44' E 121°07'0 0.0
2014-Jul-22 04:28N 31°44' E 121°07'0 0.0
2014-Jul-22 03:26N 31°44' E 121°07'0 0.0
2014-Jul-22 02:10N 31°44' E 121°07'0 0.0
2014-Jul-21 23:23N 31°44' E 121°07'0 0.0
2014-Jul-21 22:11N 31°44' E 121°07'0 0.0
2014-Jul-21 21:16N 31°44' E 121°07'0 0.0
2014-Jul-21 19:50N 31°44' E 121°07'0 0.0
2014-Jul-21 19:05N 31°44' E 121°07'0 0.0
2014-Jul-21 18:19N 31°44' E 121°07'0 0.0
2014-Jul-21 17:20N 31°44' E 121°07'0 0.0
2014-Jul-21 16:29N 31°44' E 121°07'0 0.0
2014-Jul-21 15:26N 31°44' E 121°07'0 0.0
2014-Jul-21 13:14N 31°44' E 121°07'0 0.0
2014-Jul-21 10:29N 31°44' E 121°07'3 3.6
2014-Jul-21 09:33N 31°46' E 121°04'1212.2
2014-Jul-21 08:33N 31°53' E 120°53'1212.2
2014-Jul-21 07:33N 31°60' E 120°41'1312.7
2014-Jul-21 06:34N 32°03' E 120°27'1313.4
2014-Jul-21 05:33N 31°56' E 120°13'1413.7
2014-Jul-21 04:33N 32°00' E 119°58'15 3.3
2014-Jul-21 00:07N 32°14' E 119°53'0 0.0
2014-Jul-20 22:31N 32°14' E 119°53'0 0.0
2014-Jul-20 21:25N 32°14' E 119°53'0 0.0
2014-Jul-20 17:13N 32°14' E 119°53'5 0.4
2014-Jul-20 06:23N 32°10' E 119°54'910.8
2014-Jul-20 05:33N 32°01' E 119°58'1010.3
2014-Jul-20 04:33N 31°56' E 120°08'1010.3
2014-Jul-20 03:33N 31°59' E 120°20'9 9.3
2014-Jul-20 02:33N 32°04' E 120°29'1111.0
2014-Jul-20 01:33N 32°00' E 120°41'1110.7
2014-Jul-20 00:33N 31°56' E 120°52'1211.6
2014-Jul-19 23:33N 31°47' E 121°01'1313.0
2014-Jul-19 22:34N 31°39' E 121°13'8 6.0
2014-Jul-19 21:17N 31°34' E 121°20'0 0.1
2014-Jul-19 20:17N 31°34' E 121°20'0 0.0
2014-Jul-19 19:14N 31°34' E 121°20'0 0.0
2014-Jul-19 18:32N 31°34' E 121°20'0 0.0
2014-Jul-19 17:29N 31°34' E 121°20'0 0.0
2014-Jul-19 16:32N 31°34' E 121°20'0 0.0
2014-Jul-19 15:20N 31°34' E 121°20'0 0.0
2014-Jul-19 14:26N 31°34' E 121°20'0 0.1
2014-Jul-19 13:25N 31°34' E 121°20'8 9.2
2014-Jul-19 12:33N 31°29' E 121°27'9 9.3
2014-Jul-19 11:33N 31°23' E 121°36'1111.2
2014-Jul-19 10:33N 31°16' E 121°46'1514.6
2014-Jul-19 09:33N 31°06' E 121°59'1312.4
2014-Jul-19 08:32N 31°03' E 122°13'10 9.9
2014-Jul-19 07:31N 31°01' E 122°24'1312.6
2014-Jul-19 06:31N 31°00' E 122°39'1 0.0
2014-Jul-18 06:11N 31°00' E 122°40'4 6.4
2014-Jul-18 05:33N 30°57' E 122°43'10 9.9
2014-Jul-18 04:33N 30°53' E 122°54'2612.9
2014-Jul-18 02:33N 30°28' E 123°03'1413.2
2014-Jul-18 01:31N 30°15' E 123°06'1713.2
2014-Jul-18 00:12N 29°58' E 123°10'913.4
2014-Jul-17 23:33N 29°49' E 123°10'3014.3
2014-Jul-17 21:26N 29°19' E 123°10'  

Dump ship's entire track history